createdAt,value
2018-01-16T00:00:31.052Z,1.40
2018-01-16T00:03:00.010Z,1.60
2018-01-16T00:05:28.131Z,1.53
2018-01-16T00:07:57.063Z,1.70
2018-01-16T00:10:25.205Z,1.57
2018-01-16T00:12:54.130Z,1.50
2018-01-16T00:15:22.244Z,1.63
2018-01-16T00:17:50.407Z,1.57
2018-01-16T00:20:18.532Z,1.27
2018-01-16T00:22:46.695Z,1.40
2018-01-16T00:25:14.822Z,1.43
2018-01-16T00:27:42.975Z,1.40
2018-01-16T00:30:11.098Z,1.37
2018-01-16T00:32:39.247Z,1.30
2018-01-16T00:35:07.359Z,1.20
2018-01-16T00:37:35.501Z,1.73
2018-01-16T00:40:03.641Z,1.53
2018-01-16T00:42:31.767Z,1.20
2018-01-16T00:45:00.668Z,1.73
2018-01-16T00:47:28.807Z,1.63
2018-01-16T00:49:56.947Z,1.47
2018-01-16T00:52:25.071Z,1.47
2018-01-16T00:54:53.992Z,1.40
2018-01-16T00:57:22.116Z,1.40
2018-01-16T00:59:51.029Z,1.50
2018-01-16T01:02:19.168Z,1.33
2018-01-16T01:04:47.300Z,1.20
2018-01-16T01:07:15.432Z,1.40
2018-01-16T01:09:43.568Z,1.53
2018-01-16T01:12:11.723Z,1.10
2018-01-16T01:14:39.858Z,1.30
2018-01-16T01:17:08.002Z,1.37
2018-01-16T01:19:36.885Z,1.30
2018-01-16T01:22:05.073Z,1.20
2018-01-16T01:24:33.137Z,1.20
2018-01-16T01:27:01.273Z,1.70
2018-01-16T01:29:30.169Z,1.20
2018-01-16T01:31:59.101Z,1.57
2018-01-16T01:34:27.224Z,1.33
2018-01-16T01:36:55.351Z,1.40
2018-01-16T01:39:24.240Z,1.50
2018-01-16T01:41:52.393Z,1.50
2018-01-16T01:44:20.505Z,1.13
2018-01-16T01:46:48.672Z,1.17
2018-01-16T01:49:16.798Z,1.73
2018-01-16T01:54:22.816Z,1.20
2018-01-16T01:56:50.948Z,1.40
2018-01-16T01:59:19.083Z,1.13
2018-01-16T02:01:47.224Z,1.60
2018-01-16T02:04:15.380Z,1.00
2018-01-16T02:06:44.252Z,1.20
2018-01-16T02:09:13.732Z,1.17
2018-01-16T02:11:41.864Z,1.50
2018-01-16T02:14:10.012Z,1.33
2018-01-16T02:16:38.153Z,1.20
2018-01-16T02:19:06.290Z,1.50
2018-01-16T02:21:34.408Z,1.30
2018-01-16T02:24:02.558Z,1.50
2018-01-16T02:26:30.659Z,1.73
2018-01-16T02:28:59.589Z,1.50
2018-01-16T02:31:27.721Z,1.20
2018-01-16T02:33:55.847Z,1.43
2018-01-16T02:36:24.723Z,1.27
2018-01-16T02:38:52.864Z,1.30
2018-01-16T02:41:21.029Z,0.97
2018-01-16T02:43:49.912Z,1.30
2018-01-16T02:46:18.855Z,1.30
2018-01-16T02:48:46.993Z,1.10
2018-01-16T02:51:15.116Z,1.30
2018-01-16T02:53:43.243Z,1.47
2018-01-16T02:58:47.309Z,1.40
2018-01-16T03:01:15.457Z,1.77
2018-01-16T03:03:43.585Z,1.27
2018-01-16T03:06:11.712Z,1.30
2018-01-16T03:08:39.853Z,1.60
2018-01-16T03:11:08.001Z,1.40
2018-01-16T03:13:36.116Z,1.60
2018-01-16T03:16:04.273Z,1.43
2018-01-16T03:18:32.422Z,1.40
2018-01-16T03:21:01.310Z,1.50
2018-01-16T03:23:30.250Z,1.23
2018-01-16T03:25:58.372Z,1.40
2018-01-16T03:28:26.496Z,1.10
2018-01-16T03:30:55.398Z,1.27
2018-01-16T03:33:24.274Z,1.20
2018-01-16T03:35:52.437Z,1.40
2018-01-16T03:38:20.564Z,1.20
2018-01-16T03:40:49.466Z,1.30
2018-01-16T03:43:18.397Z,1.20
2018-01-16T03:45:46.532Z,1.13
2018-01-16T03:48:15.636Z,1.20
2018-01-16T03:50:43.750Z,1.17
2018-01-16T03:53:12.649Z,1.30
2018-01-16T03:55:40.776Z,1.50
2018-01-16T03:58:08.935Z,1.17
2018-01-16T04:00:37.843Z,1.33
2018-01-16T04:03:06.729Z,1.20
2018-01-16T04:05:36.779Z,1.23
2018-01-16T04:08:04.900Z,1.30
2018-01-16T04:10:35.610Z,1.50
2018-01-16T04:13:04.492Z,1.20
2018-01-16T04:15:32.632Z,1.30
2018-01-16T04:18:00.764Z,1.40
2018-01-16T04:20:28.985Z,1.40
2018-01-16T04:22:57.126Z,1.43
2018-01-16T04:25:25.225Z,1.37
2018-01-16T04:27:53.393Z,1.30
2018-01-16T04:30:21.525Z,1.27
2018-01-16T04:32:49.663Z,1.37
2018-01-16T04:35:17.819Z,1.50
2018-01-16T04:37:45.945Z,1.30
2018-01-16T04:40:14.116Z,1.20
2018-01-16T04:42:42.234Z,1.13
2018-01-16T04:45:11.120Z,1.40
2018-01-16T04:47:39.260Z,1.40
2018-01-16T04:50:07.388Z,1.40
2018-01-16T04:52:36.176Z,1.30
2018-01-16T04:55:04.326Z,1.40
2018-01-16T04:57:32.466Z,1.27
2018-01-16T05:00:00.611Z,1.10
2018-01-16T05:02:28.770Z,1.37
2018-01-16T05:04:56.907Z,1.33
2018-01-16T05:07:25.906Z,2.13
2018-01-16T05:09:54.031Z,2.37
2018-01-16T05:12:22.976Z,1.40
2018-01-16T05:14:51.087Z,1.63
2018-01-16T05:17:19.352Z,1.47
2018-01-16T05:19:47.484Z,1.80
2018-01-16T05:22:15.609Z,1.60
2018-01-16T05:24:43.760Z,1.40
2018-01-16T05:27:12.644Z,1.43
2018-01-16T05:29:40.792Z,1.70
2018-01-16T05:32:08.921Z,1.20
2018-01-16T05:34:37.206Z,1.97
2018-01-16T05:37:05.340Z,1.60
2018-01-16T05:39:33.502Z,1.83
2018-01-16T05:42:01.652Z,1.50
2018-01-16T05:44:29.817Z,1.33
2018-01-16T05:46:57.945Z,1.50
2018-01-16T05:49:26.089Z,1.53
2018-01-16T05:51:54.237Z,1.80
2018-01-16T05:54:23.127Z,1.40
2018-01-16T05:56:51.269Z,1.37
2018-01-16T05:59:19.399Z,1.37
2018-01-16T06:01:48.956Z,1.30
2018-01-16T06:04:17.090Z,1.80
2018-01-16T06:06:45.273Z,1.33
2018-01-16T06:09:13.427Z,1.80
2018-01-16T06:11:42.328Z,1.83
2018-01-16T06:14:10.456Z,1.73
2018-01-16T06:16:38.627Z,1.40
2018-01-16T06:19:06.752Z,1.43
2018-01-16T06:21:35.680Z,1.60
2018-01-16T06:24:03.817Z,1.80
2018-01-16T06:26:31.954Z,1.37
2018-01-16T06:29:00.103Z,1.30
2018-01-16T06:31:29.932Z,1.50
2018-01-16T06:33:59.723Z,1.40
2018-01-16T06:36:28.429Z,1.30
2018-01-16T06:38:57.333Z,1.40
2018-01-16T06:41:25.449Z,2.47
2018-01-16T06:43:54.364Z,1.97
2018-01-16T06:46:22.496Z,1.80
2018-01-16T06:48:50.633Z,1.70
2018-01-16T06:51:18.757Z,2.00
2018-01-16T06:53:46.925Z,1.80
2018-01-16T06:56:15.041Z,1.40
2018-01-16T06:58:43.195Z,1.60
2018-01-16T07:01:11.360Z,1.50
2018-01-16T07:03:40.258Z,1.60
2018-01-16T07:06:09.175Z,1.40
2018-01-16T07:08:37.303Z,1.30
2018-01-16T07:11:05.425Z,1.50
2018-01-16T07:13:34.356Z,1.30
2018-01-16T07:16:02.490Z,1.90
2018-01-16T07:18:30.626Z,1.43
2018-01-16T07:20:58.807Z,1.30
2018-01-16T07:23:26.927Z,1.47
2018-01-16T07:25:55.084Z,1.30
2018-01-16T07:28:23.234Z,1.60
2018-01-16T07:30:51.412Z,1.60
2018-01-16T07:33:19.545Z,1.70
2018-01-16T07:35:47.669Z,1.70
2018-01-16T07:38:15.815Z,1.80
2018-01-16T07:40:43.968Z,1.80
2018-01-16T07:43:12.120Z,1.80
2018-01-16T07:45:40.263Z,1.83
2018-01-16T07:48:08.409Z,1.43
2018-01-16T07:50:36.547Z,2.20
2018-01-16T07:53:05.491Z,2.40
2018-01-16T07:55:33.631Z,1.90
2018-01-16T07:58:01.832Z,1.90
2018-01-16T08:00:30.285Z,2.10
2018-01-16T08:02:58.452Z,1.80
2018-01-16T08:05:27.540Z,2.00
2018-01-16T08:07:55.700Z,2.00
2018-01-16T08:10:23.833Z,1.60
2018-01-16T08:12:51.987Z,2.20
2018-01-16T08:15:20.140Z,1.70
2018-01-16T08:17:48.276Z,1.70
2018-01-16T08:20:17.911Z,1.40
2018-01-16T08:22:46.036Z,1.87
2018-01-16T08:25:14.193Z,1.93
2018-01-16T08:27:42.351Z,2.00
2018-01-16T08:30:10.486Z,2.40
2018-01-16T08:32:39.394Z,1.73
2018-01-16T08:35:07.536Z,1.20
2018-01-16T08:37:35.679Z,2.07
2018-01-16T08:40:03.803Z,1.43
2018-01-16T08:42:31.936Z,1.30
2018-01-16T08:45:00.127Z,1.40
2018-01-16T08:47:28.259Z,1.40
2018-01-16T08:49:56.416Z,1.70
2018-01-16T08:52:25.300Z,1.80
2018-01-16T08:54:53.425Z,2.07
2018-01-16T08:57:21.588Z,1.10
2018-01-16T08:59:50.495Z,1.37
2018-01-16T09:02:18.644Z,1.50
2018-01-16T09:04:47.558Z,1.03
2018-01-16T09:07:16.668Z,2.00
2018-01-16T09:09:44.831Z,1.57
2018-01-16T09:12:13.725Z,1.60
2018-01-16T09:14:43.385Z,1.83
2018-01-16T09:17:11.500Z,1.70
2018-01-16T09:19:42.200Z,1.50
2018-01-16T09:22:11.102Z,1.40
2018-01-16T09:24:40.024Z,1.40
2018-01-16T09:27:08.152Z,1.50
2018-01-16T09:29:36.321Z,1.50
2018-01-16T09:32:05.227Z,1.40
2018-01-16T09:34:33.790Z,2.27
2018-01-16T09:37:01.929Z,1.70
2018-01-16T09:39:30.062Z,2.20
2018-01-16T09:41:58.949Z,1.57
2018-01-16T09:44:27.851Z,1.60
2018-01-16T09:46:56.784Z,1.80
2018-01-16T09:49:24.913Z,1.77
2018-01-16T09:51:53.040Z,1.40
2018-01-16T09:54:21.234Z,1.53
2018-01-16T09:56:49.369Z,1.80
2018-01-16T09:59:17.524Z,1.60
2018-01-16T10:01:46.795Z,2.40
2018-01-16T10:04:14.932Z,1.90
2018-01-16T10:06:43.057Z,1.80
2018-01-16T10:09:11.216Z,2.23
2018-01-16T10:11:39.340Z,1.40
2018-01-16T10:14:08.227Z,1.87
2018-01-16T10:16:36.368Z,1.50
2018-01-16T10:19:04.516Z,1.80
2018-01-16T10:21:32.657Z,1.70
2018-01-16T10:24:00.788Z,1.60
2018-01-16T10:26:29.920Z,2.20
2018-01-16T10:28:58.816Z,1.40
2018-01-16T10:31:27.737Z,1.70
2018-01-16T10:33:55.847Z,1.47
2018-01-16T10:36:23.984Z,1.70
2018-01-16T10:38:52.897Z,1.50
2018-01-16T10:41:21.788Z,1.90
2018-01-16T10:43:50.675Z,2.37
2018-01-16T10:46:18.809Z,1.90
2018-01-16T10:48:46.945Z,1.83
2018-01-16T10:51:15.068Z,2.00
2018-01-16T10:53:43.217Z,1.57
2018-01-16T10:56:11.343Z,1.47
2018-01-16T10:58:39.495Z,1.57
2018-01-16T11:01:07.613Z,1.63
2018-01-16T11:03:35.763Z,1.50
2018-01-16T11:06:03.899Z,1.60
2018-01-16T11:08:32.057Z,1.57
2018-01-16T11:11:00.944Z,1.70
2018-01-16T11:13:29.084Z,2.33
2018-01-16T11:15:57.235Z,1.03
2018-01-16T11:18:26.137Z,1.40
2018-01-16T11:20:54.285Z,1.47
2018-01-16T11:23:22.429Z,1.27
2018-01-16T11:25:50.556Z,1.27
2018-01-16T11:28:18.702Z,1.00
2018-01-16T11:30:46.813Z,1.30
2018-01-16T11:33:14.966Z,1.10
2018-01-16T11:35:43.360Z,1.20
2018-01-16T11:38:11.501Z,1.47
2018-01-16T11:40:39.677Z,2.00
2018-01-16T11:43:07.841Z,3.80
2018-01-16T11:45:35.979Z,2.07
2018-01-16T11:48:04.882Z,1.77
2018-01-16T11:50:33.815Z,1.33
2018-01-16T11:53:01.932Z,1.57
2018-01-16T11:55:30.084Z,1.90
2018-01-16T11:57:58.981Z,2.37
2018-01-16T12:00:27.115Z,1.70
2018-01-16T12:02:55.256Z,3.03
2018-01-16T12:05:23.429Z,1.40
2018-01-16T12:07:51.580Z,1.70
2018-01-16T12:10:19.728Z,1.83
2018-01-16T12:12:47.867Z,1.90
2018-01-16T12:15:15.992Z,2.00
2018-01-16T12:17:44.142Z,1.50
2018-01-16T12:20:12.280Z,1.43
2018-01-16T12:22:40.417Z,1.80
2018-01-16T12:25:09.312Z,1.50
2018-01-16T12:27:38.223Z,1.60
2018-01-16T12:30:07.121Z,1.20
2018-01-16T12:32:36.032Z,1.77
2018-01-16T12:35:04.923Z,1.47
2018-01-16T12:37:33.841Z,1.40
2018-01-16T12:40:02.744Z,2.03
2018-01-16T12:42:31.672Z,1.20
2018-01-16T12:44:59.825Z,1.00
2018-01-16T12:47:28.739Z,1.30
2018-01-16T12:49:57.626Z,1.40
2018-01-16T12:52:25.790Z,1.23
2018-01-16T12:54:53.969Z,1.00
2018-01-16T12:57:22.132Z,1.20
2018-01-16T12:59:50.260Z,0.97
2018-01-16T13:02:18.392Z,1.07
2018-01-16T13:04:46.527Z,1.00
2018-01-16T13:07:14.674Z,1.00
2018-01-16T13:09:42.822Z,1.10
2018-01-16T13:12:11.744Z,1.00
2018-01-16T13:14:40.657Z,0.90
2018-01-16T13:17:08.799Z,1.20
2018-01-16T13:19:36.924Z,0.97
2018-01-16T13:22:05.064Z,1.00
2018-01-16T13:24:33.224Z,0.83
2018-01-16T13:27:01.336Z,1.00
2018-01-16T13:29:29.485Z,1.00
2018-01-16T13:31:57.637Z,1.20
2018-01-16T13:34:26.558Z,1.13
2018-01-16T13:36:54.688Z,1.10
2018-01-16T13:39:22.856Z,2.17
2018-01-16T13:41:50.979Z,2.10
2018-01-16T13:44:19.654Z,1.87
2018-01-16T13:46:47.800Z,1.40
2018-01-16T13:49:15.915Z,1.13
2018-01-16T13:51:44.326Z,1.20
2018-01-16T13:54:13.202Z,1.63
2018-01-16T13:56:41.334Z,1.43
2018-01-16T13:59:09.492Z,1.17
2018-01-16T14:01:37.643Z,1.20
2018-01-16T14:04:06.568Z,1.43
2018-01-16T14:06:34.706Z,1.00
2018-01-16T14:09:04.464Z,1.37
2018-01-16T14:11:32.601Z,1.50
2018-01-16T14:14:00.741Z,1.30
2018-01-16T14:16:28.908Z,1.20
2018-01-16T14:18:57.807Z,1.50
2018-01-16T14:21:27.851Z,1.23
2018-01-16T14:23:56.552Z,1.20
2018-01-16T14:26:24.669Z,1.10
2018-01-16T14:28:52.826Z,1.10
2018-01-16T14:31:20.969Z,1.07
2018-01-16T14:33:49.115Z,1.00
2018-01-16T14:36:17.249Z,1.60
2018-01-16T14:38:45.417Z,1.70
2018-01-16T14:41:13.572Z,2.57
2018-01-16T14:43:41.731Z,1.50
2018-01-16T14:46:11.100Z,1.43
2018-01-16T14:48:39.249Z,2.00
2018-01-16T14:51:07.396Z,1.10
2018-01-16T14:53:35.537Z,1.10
2018-01-16T14:56:04.265Z,1.23
2018-01-16T14:58:32.406Z,1.20
2018-01-16T15:01:00.849Z,1.30
2018-01-16T15:03:30.495Z,1.50
2018-01-16T15:05:59.428Z,1.57
2018-01-16T15:08:27.553Z,1.70
2018-01-16T15:10:55.719Z,1.30
2018-01-16T15:13:23.852Z,1.20
2018-01-16T15:15:52.766Z,1.80
2018-01-16T15:18:21.046Z,1.40
2018-01-16T15:20:49.959Z,1.20
2018-01-16T15:23:18.864Z,1.50
2018-01-16T15:25:46.993Z,1.40
2018-01-16T15:28:15.716Z,1.70
2018-01-16T15:30:43.844Z,1.20
2018-01-16T15:33:12.026Z,1.23
2018-01-16T15:35:42.081Z,1.57
2018-01-16T15:38:10.221Z,1.43
2018-01-16T15:40:39.656Z,1.30
2018-01-16T15:43:07.829Z,1.37
2018-01-16T15:45:36.716Z,1.27
2018-01-16T15:48:05.602Z,1.30
2018-01-16T15:50:33.741Z,1.20
2018-01-16T15:53:01.873Z,1.73
2018-01-16T15:55:30.016Z,1.47
2018-01-16T15:57:58.147Z,1.87
2018-01-16T16:00:26.304Z,1.50
2018-01-16T16:02:54.444Z,1.30
2018-01-16T16:05:23.400Z,4.47
2018-01-16T16:07:51.524Z,1.43
2018-01-16T16:12:55.318Z,1.40
2018-01-16T16:15:23.443Z,1.73
2018-01-16T16:17:51.603Z,1.63
2018-01-16T16:20:19.763Z,1.77
2018-01-16T16:22:47.933Z,1.60
2018-01-16T16:25:16.817Z,1.60
2018-01-16T16:27:44.980Z,1.90
2018-01-16T16:30:13.110Z,1.67
2018-01-16T16:32:42.023Z,1.67
2018-01-16T16:35:10.179Z,2.00
2018-01-16T16:37:38.314Z,1.47
2018-01-16T16:40:06.471Z,1.77
2018-01-16T16:42:35.372Z,1.90
2018-01-16T16:45:03.552Z,1.83
2018-01-16T16:47:32.881Z,1.67
2018-01-16T16:50:01.778Z,2.20
2018-01-16T16:52:30.681Z,1.90
2018-01-16T16:54:59.580Z,2.47
2018-01-16T16:57:28.474Z,3.07
2018-01-16T16:59:56.615Z,2.23
2018-01-16T17:02:24.768Z,2.10
2018-01-16T17:04:53.676Z,1.50
2018-01-16T17:07:21.828Z,1.83
2018-01-16T17:09:49.989Z,1.70
2018-01-16T17:12:18.880Z,1.87
2018-01-16T17:14:47.017Z,1.63
2018-01-16T17:17:15.970Z,1.50
2018-01-16T17:19:44.183Z,1.80
2018-01-16T17:22:13.084Z,2.10
2018-01-16T17:24:41.283Z,2.20
2018-01-16T17:27:09.424Z,1.63
2018-01-16T17:29:37.687Z,1.77
2018-01-16T17:32:07.272Z,1.50
2018-01-16T17:34:35.392Z,1.50
2018-01-16T17:37:03.560Z,1.70
2018-01-16T17:39:31.708Z,1.50
2018-01-16T17:41:59.862Z,1.30
2018-01-16T17:44:27.982Z,1.50
2018-01-16T17:46:56.118Z,1.40
2018-01-16T17:49:25.033Z,1.20
2018-01-16T17:51:53.188Z,1.43
2018-01-16T17:54:21.314Z,1.40
2018-01-16T17:56:49.473Z,1.03
2018-01-16T17:59:18.393Z,1.10
2018-01-16T18:01:46.545Z,1.00
2018-01-16T18:04:14.697Z,1.00
2018-01-16T18:06:42.876Z,1.37
2018-01-16T18:09:11.032Z,1.03
2018-01-16T18:11:39.922Z,1.10
2018-01-16T18:14:08.857Z,1.27
2018-01-16T18:16:37.010Z,1.30
2018-01-16T18:19:05.197Z,1.23
2018-01-16T18:21:33.318Z,1.10
2018-01-16T18:24:01.461Z,1.50
2018-01-16T18:26:29.599Z,1.93
2018-01-16T18:28:57.730Z,1.60
2018-01-16T18:31:25.945Z,1.20
2018-01-16T18:33:54.103Z,1.40
2018-01-16T18:36:22.238Z,1.50
2018-01-16T18:38:50.386Z,1.20
2018-01-16T18:41:20.089Z,1.93
2018-01-16T18:43:48.221Z,1.70
2018-01-16T18:46:16.369Z,1.40
2018-01-16T18:48:44.569Z,2.00
2018-01-16T18:51:12.693Z,1.60
2018-01-16T18:53:40.825Z,1.00
2018-01-16T18:56:08.983Z,1.50
2018-01-16T18:58:37.105Z,1.73
2018-01-16T19:01:06.048Z,2.70
2018-01-16T19:03:35.337Z,1.40
2018-01-16T19:06:04.630Z,1.63
2018-01-16T19:08:34.267Z,1.70
2018-01-16T19:11:03.188Z,1.93
2018-01-16T19:13:32.103Z,1.50
2018-01-16T19:16:00.251Z,1.10
2018-01-16T19:18:29.043Z,1.50
2018-01-16T19:20:57.200Z,1.60
2018-01-16T19:23:25.386Z,1.60
2018-01-16T19:25:53.539Z,2.13
2018-01-16T19:28:22.433Z,2.57
2018-01-16T19:30:52.261Z,1.87
2018-01-16T19:33:22.375Z,1.73
2018-01-16T19:35:50.507Z,2.10
2018-01-16T19:38:18.648Z,2.00
2018-01-16T19:40:46.810Z,1.63
2018-01-16T19:43:14.957Z,2.70
2018-01-16T19:45:44.314Z,3.70
2018-01-16T19:48:14.833Z,2.87
2018-01-16T19:50:42.985Z,2.67
2018-01-16T19:53:11.142Z,2.90
2018-01-16T19:55:41.531Z,2.23
2018-01-16T19:58:09.721Z,1.80
2018-01-16T20:00:37.843Z,2.47
2018-01-16T20:03:05.996Z,1.77
2018-01-16T20:05:34.165Z,1.80
2018-01-16T20:08:02.302Z,1.73
2018-01-16T20:10:30.426Z,1.70
2018-01-16T20:12:58.574Z,1.80
2018-01-16T20:15:26.749Z,2.33
2018-01-16T20:17:54.893Z,1.23
2018-01-16T20:20:23.033Z,1.83
2018-01-16T20:22:51.161Z,1.60
2018-01-16T20:25:20.238Z,1.70
2018-01-16T20:27:48.396Z,1.43
2018-01-16T20:30:17.495Z,1.57
2018-01-16T20:32:45.690Z,2.00
2018-01-16T20:35:13.873Z,1.90
2018-01-16T20:37:42.022Z,1.80
2018-01-16T20:40:10.186Z,1.90
2018-01-16T20:42:39.149Z,1.53
2018-01-16T20:45:07.274Z,1.77
2018-01-16T20:47:37.043Z,1.63
2018-01-16T20:50:05.190Z,1.93
2018-01-16T20:52:33.344Z,1.47
2018-01-16T20:55:01.498Z,2.30
2018-01-16T20:57:30.504Z,1.50
2018-01-16T20:59:58.666Z,1.53
2018-01-16T21:02:26.847Z,1.57
2018-01-16T21:04:57.012Z,1.80
2018-01-16T21:07:25.153Z,1.67
2018-01-16T21:09:54.006Z,1.90
2018-01-16T21:12:22.228Z,1.43
2018-01-16T21:14:50.347Z,2.27
2018-01-16T21:17:20.065Z,2.00
2018-01-16T21:19:49.880Z,1.40
2018-01-16T21:22:18.876Z,1.60
2018-01-16T21:24:47.072Z,1.77
2018-01-16T21:27:16.003Z,1.87
2018-01-16T21:29:44.159Z,1.70
2018-01-16T21:32:12.290Z,1.80
2018-01-16T21:34:40.422Z,1.87
2018-01-16T21:37:08.567Z,1.90
2018-01-16T21:39:36.705Z,1.60
2018-01-16T21:42:05.633Z,2.10
2018-01-16T21:44:34.680Z,2.07
2018-01-16T21:47:02.844Z,2.10
2018-01-16T21:49:30.961Z,2.33
2018-01-16T21:51:59.144Z,2.30
2018-01-16T21:54:27.279Z,2.50
2018-01-16T21:56:55.740Z,2.90
2018-01-16T21:59:23.855Z,2.70
2018-01-16T22:01:52.756Z,2.67
2018-01-16T22:04:22.393Z,3.20
2018-01-16T22:06:50.511Z,2.50
2018-01-16T22:09:18.672Z,2.47
2018-01-16T22:11:46.809Z,2.57
2018-01-16T22:14:14.948Z,2.63
2018-01-16T22:16:43.081Z,2.50
2018-01-16T22:19:11.264Z,2.40
2018-01-16T22:21:39.400Z,2.20
2018-01-16T22:24:08.300Z,2.70
2018-01-16T22:26:36.528Z,2.90
2018-01-16T22:29:05.431Z,2.60
2018-01-16T22:31:33.557Z,2.40
2018-01-16T22:34:02.538Z,3.20
2018-01-16T22:36:30.664Z,2.30
2018-01-16T22:38:58.800Z,2.60
2018-01-16T22:41:28.438Z,2.70
2018-01-16T22:43:57.356Z,2.50
2018-01-16T22:46:26.239Z,3.00
2018-01-16T22:48:54.403Z,2.73
2018-01-16T22:51:23.294Z,2.90
2018-01-16T22:53:51.428Z,2.90
2018-01-16T22:56:20.348Z,2.43
2018-01-16T22:58:48.462Z,2.57
2018-01-16T23:01:16.616Z,2.70
2018-01-16T23:03:45.535Z,3.10
2018-01-16T23:06:13.674Z,2.73
2018-01-16T23:08:41.812Z,2.47
2018-01-16T23:11:10.137Z,2.50
2018-01-16T23:13:38.221Z,2.60
2018-01-16T23:16:06.366Z,2.37
2018-01-16T23:18:35.207Z,1.87
2018-01-16T23:21:03.542Z,2.23
2018-01-16T23:23:33.020Z,2.13
2018-01-16T23:26:02.676Z,2.00
2018-01-16T23:28:30.804Z,2.03
2018-01-16T23:30:58.936Z,2.10
2018-01-16T23:33:27.849Z,2.33
2018-01-16T23:35:56.733Z,2.20
2018-01-16T23:38:25.656Z,1.63
2018-01-16T23:40:54.551Z,1.93
2018-01-16T23:43:23.432Z,1.93
2018-01-16T23:45:53.100Z,1.70
2018-01-16T23:48:21.223Z,1.93
2018-01-16T23:50:49.365Z,1.60
2018-01-16T23:53:18.257Z,1.57
2018-01-16T23:55:47.169Z,2.10
2018-01-16T23:58:15.320Z,2.30
